createdAt,value
2023-05-01T00:07:03.581Z,89.10
2023-05-01T00:19:03.987Z,87.65
2023-05-01T00:31:04.417Z,87.60
2023-05-01T00:43:04.870Z,89.09
2023-05-01T00:55:05.423Z,90.60
2023-05-01T01:07:05.772Z,93.81
2023-05-01T01:19:06.215Z,99.15
2023-05-01T01:31:06.674Z,95.57
2023-05-01T01:43:07.179Z,91.40
2023-05-01T01:55:07.572Z,91.02
2023-05-01T02:07:08.039Z,88.72
2023-05-01T02:19:08.504Z,94.39
2023-05-01T02:31:09.009Z,95.75
2023-05-01T02:43:09.395Z,98.80
2023-05-01T02:55:09.860Z,99.88
2023-05-01T03:07:10.291Z,93.46
2023-05-01T03:19:10.769Z,91.66
2023-05-01T03:31:11.216Z,90.77
2023-05-01T03:43:11.667Z,89.82
2023-05-01T03:55:12.122Z,89.25
2023-05-01T04:07:12.616Z,91.39
2023-05-01T04:19:13.013Z,93.50
2023-05-01T04:31:13.500Z,95.33
2023-05-01T04:43:13.907Z,96.80
2023-05-01T04:55:14.385Z,97.75
2023-05-01T05:07:14.848Z,95.52
2023-05-01T05:19:15.275Z,92.25
2023-05-01T05:31:15.730Z,90.17
2023-05-01T05:43:16.226Z,89.56
2023-05-01T05:55:16.659Z,89.62
2023-05-01T06:07:17.079Z,85.40
2023-05-01T06:19:17.551Z,86.36
2023-05-01T06:31:18.094Z,82.83
2023-05-01T06:43:18.458Z,80.35
2023-05-01T06:55:18.931Z,77.02
2023-05-01T07:07:19.373Z,71.44
2023-05-01T07:19:19.845Z,54.35
2023-05-01T07:31:20.310Z,53.99
2023-05-01T07:43:20.761Z,51.76
2023-05-01T07:55:21.147Z,50.54
2023-05-01T08:07:21.688Z,52.76
2023-05-01T08:19:22.071Z,53.46
2023-05-01T08:31:22.593Z,49.43
2023-05-01T08:43:23.006Z,49.30
2023-05-01T08:55:23.454Z,53.00
2023-05-01T09:07:23.925Z,49.99
2023-05-01T09:19:24.345Z,49.11
2023-05-01T09:31:24.893Z,46.38
2023-05-01T09:43:25.298Z,45.42
2023-05-01T09:55:26.015Z,49.09
2023-05-01T10:07:26.177Z,50.55
2023-05-01T10:19:26.605Z,49.43
2023-05-01T10:31:27.213Z,52.37
2023-05-01T10:43:27.541Z,48.91
2023-05-01T10:55:28.030Z,46.67
2023-05-01T11:07:28.437Z,47.37
2023-05-01T11:19:29.498Z,44.58
2023-05-01T11:31:29.347Z,48.73
2023-05-01T11:43:29.787Z,44.60
2023-05-01T11:55:30.261Z,44.01
2023-05-01T12:07:30.738Z,44.10
2023-05-01T12:19:31.182Z,47.43
2023-05-01T12:31:31.797Z,46.53
2023-05-01T12:43:32.066Z,46.00
2023-05-01T12:55:32.553Z,47.30
2023-05-01T13:07:32.998Z,45.43
2023-05-01T13:19:33.448Z,44.80
2023-05-01T13:31:33.906Z,42.10
2023-05-01T13:43:34.375Z,43.50
2023-05-01T13:55:34.801Z,43.68
2023-05-01T14:07:35.252Z,45.66
2023-05-01T14:19:35.707Z,45.75
2023-05-01T14:31:36.211Z,45.52
2023-05-01T14:43:36.618Z,44.79
2023-05-01T14:55:37.101Z,40.73
2023-05-01T15:07:37.558Z,45.88
2023-05-01T15:19:38.004Z,43.71
2023-05-01T15:31:38.489Z,47.33
2023-05-01T15:43:38.909Z,46.42
2023-05-01T15:55:39.400Z,46.50
2023-05-01T16:07:39.832Z,47.87
2023-05-01T16:19:40.274Z,47.70
2023-05-01T16:31:40.771Z,48.82
2023-05-01T16:43:41.202Z,51.26
2023-05-01T16:55:41.659Z,55.77
2023-05-01T17:07:42.086Z,56.63
2023-05-01T17:19:42.564Z,59.32
2023-05-01T17:31:43.109Z,61.73
2023-05-01T17:43:43.498Z,62.97
2023-05-01T17:55:43.906Z,64.09
2023-05-01T18:07:44.362Z,67.67
2023-05-01T18:19:44.806Z,68.23
2023-05-01T18:31:45.319Z,70.07
2023-05-01T18:43:45.728Z,71.40
2023-05-01T18:55:46.197Z,71.54
2023-05-01T19:07:46.711Z,75.16
2023-05-01T19:19:47.118Z,77.53
2023-05-01T19:31:47.580Z,77.83
2023-05-01T19:43:48.032Z,77.75
2023-05-01T19:55:48.457Z,78.21
2023-05-01T20:07:48.916Z,78.29
2023-05-01T20:19:49.370Z,78.51
2023-05-01T20:31:49.819Z,79.49
2023-05-01T20:43:50.263Z,79.37
2023-05-01T20:55:50.774Z,80.93
2023-05-01T21:07:51.183Z,80.86
2023-05-01T21:19:51.631Z,80.50
2023-05-01T21:31:52.103Z,83.23
2023-05-01T21:43:52.567Z,81.95
2023-05-01T21:55:52.988Z,82.59
2023-05-01T22:07:53.440Z,82.73
2023-05-01T22:19:53.896Z,84.79
2023-05-01T22:31:54.391Z,85.37
2023-05-01T22:43:54.797Z,84.71
2023-05-01T22:55:55.300Z,86.21
2023-05-01T23:07:56.227Z,86.88
2023-05-01T23:19:56.234Z,85.79
2023-05-01T23:31:56.635Z,85.22
2023-05-01T23:43:57.066Z,86.79
2023-05-01T23:55:57.560Z,85.14
